x

Sentry Shoal (46131) Wave Buoy

3:00 - Thu 24th Apr 2014 All times are PDT. -7 hours from GMT.

  • Sig Wave height 1.3ft
  • Peak Period 4s
  • Wind
    7mph, 9mph gusts
  • Sea Temp 48°f
  • Aire Temp 45°f
  • Sea Pressure 999.1mb
  • Sentry Shoal
  • Sentry Shoal

More Historic Weather Station data

Upgrade to MSW Pro to gain access to the past 30 days of data for over 8000 Wavebouys and Weather Stations around the globe.

Join Pro

Comparision Forecast

View Surf forecast
   
jue 04/24 3:00 1.3ft 4s 7 9 mph 999.1mb 48f 45f
2:00 2ft 4s 11 13 mph 999.6mb 48f 46f
1:00 2.5ft 4s 16 20 mph 1000.4mb 48f 47f
12:00 3ft 4s 20 25 mph 1001.5mb 48f 47f
mié 04/23 11:00 3.5ft 5s 18 22 mph 1002.8mb 48f 48f
10:00 3ft 5s 22 27 mph 1003.4mb 48f 49f
9:00 2.5ft 5s 18 25 mph 1004.1mb 48f 50f
8:00 3ft 4s 13
mph
1004.7mb 48f 50f
7:00 3ft 5s 18 22 mph 1005.7mb 48f 50f
6:00 3ft 4s 16 20 mph 1006.8mb 48f 49f
5:00 3.5ft 4s 13 16 mph 1007.4mb 48f 49f
4:00 3ft 4s 18 20 mph 1007.9mb 48f 49f
3:00 3ft 4s 20 25 mph 1008.7mb 48f 49f
2:00 2.5ft 4s 18 20 mph 1009.2mb 48f 49f
1:00 2.5ft 4s 16 20 mph 1009.4mb 48f 49f
12:00 2ft 4s 16 20 mph 1009.9mb 49f 49f
11:00 1.6ft 3s 18 20 mph 1010mb 49f 48f
10:00 1.6ft 3s 16 20 mph 1009.9mb 48f 47f
9:00 2ft 3s 18 20 mph 1009.9mb 48f 47f
8:00  -   -  18
mph
- - -
7:00 1.6ft 3s 16 20 mph 1010mb 48f 45f
6:00 1.3ft 3s 16 18 mph 1009.6mb 48f 47f
5:00 1.3ft 4s 16 18 mph 1009.2mb 48f 47f
4:00 1.6ft 4s 16 18 mph 1009.1mb 48f 47f
3:00 2ft 4s 16 18 mph 1009mb 48f 47f
2:00 1.6ft 3s 18 25 mph 1008.8mb 48f 48f
1:00 1.6ft 3s 18 20 mph 1008.9mb 48f 47f
12:00 1.3ft 3s 16 18 mph 1008.9mb 48f 48f
mar 04/22 11:00 1ft 3s 16 18 mph 1008.7mb 49f 48f
10:00 1ft 3s 13 16 mph 1008.8mb 49f 47f
9:00 1.3ft 4s 11 13 mph 1008.6mb 49f 49f
8:00 1.6ft 4s 16 18 mph 1008.3mb 49f 49f
7:00 2.5ft 4s 16 18 mph 1008.2mb 49f 50f
6:00 2.5ft 4s 20 22 mph 1008.3mb 49f 50f
5:00 1.6ft 3s 25 29 mph 1008.2mb 49f 50f
4:00 0.7ft 2s 18 22 mph 1008.5mb 50f 51f
3:00 0.3ft 2s 9 11 mph 1009.2mb 50f 51f
2:00 0.3ft 3s 9 11 mph 1009.2mb 50f 49f
1:00  -  3s 11 13 mph 1009.4mb 50f 48f
12:00  -  2s 7 9 mph 1009.6mb 51f 47f
11:00 0.3ft 3s  -  mph 1009.5mb 50f 47f
10:00 0.3ft 2s  -  2 mph 1009.3mb 49f 45f
9:00 0.3ft 4s 2
mph
1009.4mb 49f 45f
8:00 0.3ft 2s 4 7 mph 1009.7mb 49f 44f
7:00 0.3ft 2s 9 11 mph 1009.7mb 48f 45f
6:00 0.3ft 2s 9 11 mph 1009.5mb 48f 45f
5:00 0.3ft 2s 9 11 mph 1009.5mb 48f 45f
4:00 0.3ft 2s 9 11 mph 1009.4mb 48f 46f
3:00 0.3ft 2s 9 11 mph 1009.5mb 48f 46f
2:00 0.3ft 2s 9
mph
1010.1mb 48f 46f
1:00 0.7ft 2s 11 13 mph 1010.6mb 48f 47f
12:00 0.7ft 2s 13 16 mph 1010.6mb 48f 47f
lun 04/21 11:00 0.3ft 2s 18 20 mph 1011.2mb 48f 47f
10:00  -  2s 4
mph
1011.8mb 48f 47f
9:00  -  2s 4
mph
1011.9mb 48f 47f
8:00  -  4s 2
mph
1012.3mb 48f 47f
7:00  -  3s 2
mph
1013mb 48f 48f
6:00  -  2s 2 4 mph 1013.7mb 49f 48f
5:00  -  2s  -  2 mph 1014.2mb 49f 48f
4:00 0.3ft 2s  -  2 mph 1014.7mb 49f 48f
3:00 0.3ft 3s 4
mph
1015.3mb 49f 48f
2:00 0.3ft 2s 7
mph
1015.7mb 49f 47f
1:00 0.3ft 2s 7
mph
1016.1mb 48f 47f
12:00 0.3ft 3s 7 9 mph 1016.3mb 48f 46f
11:00 0.3ft 2s 9
mph
1016.7mb 48f 46f
10:00 0.3ft 2s 7 9 mph 1016.8mb 48f 46f
9:00 0.7ft 2s 2 4 mph 1017.2mb 48f 46f
8:00 0.7ft 2s 4 7 mph 1017.6mb 48f 46f
7:00 0.7ft 2s 7 9 mph 1017.8mb 48f 46f
6:00 0.7ft 2s 11 13 mph 1017.8mb 48f 46f
5:00 1ft 4s 9 11 mph 1018.2mb 48f 47f
4:00 1.3ft 4s 9 11 mph 1018.6mb 48f 48f
3:00 1.6ft 4s 9 11 mph 1018.9mb 48f 48f
2:00 1.6ft 4s 11 13 mph 1019mb 48f 48f
1:00 2ft 4s 9 13 mph 1019.3mb 48f 49f
12:00 2.5ft 4s 16 20 mph 1019mb 48f 49f
dom 04/20 11:00 3ft 4s 16 18 mph 1019.1mb 48f 49f
10:00 3.5ft 4s 22 27 mph 1018.9mb 48f 49f
9:00 3.5ft 5s 22 27 mph 1019.6mb 48f 50f
8:00 4.5ft 5s 22 27 mph 1019.5mb 48f 50f
7:00 3.5ft 5s 22 29 mph 1020mb 48f 50f
6:00 4ft 5s 22 27 mph 1020.6mb 48f 50f
5:00 3.5ft 5s 25 29 mph 1021.1mb 48f 50f
4:00 4ft 5s 25 29 mph 1021.3mb 48f 50f
1:00 4.5ft 5s 27 34 mph 1022.2mb 48f 49f
12:00 4ft 4s 22 31 mph 1022.5mb 48f 49f